Grizzly Air Cargo 5380


PAKN
King Salmon Airport
King Salmon, Alaska, US
PANI
Aniak Airport
Aniak, Alaska, US

Activity Log

Date Flight Route Aircraft Duration
No Flights Yet

Route Details

Aircraft Information
Primary: Saab 340AF
Backup: Not Available
Route Data
Distance: 220nm
Sched. Duration: 1h 00m
Avg. Duration: 0h 00m (-100m)
Times Flown: 0
Recm'd Route: AKN Q51 SLIIM ANI
Planned Altitude: 20,000ft
Origin Wx: PAKN 181654Z AUTO 16021G29KT 10SM OVC047 02/M03 A2936 RMK AO2 PK WND 16031/1613 SLP942 T00171028 TSNO
Dest. Wx: PANI 181656Z AUTO 11017G25KT 10SM OVC028 01/M03 A2910 RMK AO2 SLP857 T00061033 FZRANO
Notes:

Financial History
Total Freight: 0lbs
Average Load: 0lbs/flt
Fuel Used: 0lbs
Avg. Fuel Used: 0lbs/flt
Fuel Expense: $0
Avg. Fuel Expense: $0
Avg. Fuel Cost: $0/lbs
Total Gross Income: $0
Pilot Pay: $0
Total Expenses: $0
Total Revenue: $0
Average Revenue: $0